Main page
METAR-TAF:

METAR-TAF

Airports :

Dundee Airport

Dundee, Scotland

latitude: 56-27N, longitude: 003-01W, elevation: 4 m

Current weather observation

The report was made 31 minutes ago, at 19:20 UTC
Wind 12 kt from the West
Temperature 6°C
Humidity 70%
Pressure 1009 hPa
Visibility 10 km or more
Few clouds at a height of 4000 ft

METAR: EGPN 291920Z 28012KT 9999 FEW040 06/01 Q1009

Time: 19:51 (19:51 UTC)

Forecast

The report was made 2 hours and 49 minutes ago, at 17:02 UTC
Forecast valid from 29 at 18 UTC to 29 at 22 UTC
Wind 19 kt from the West
Visibility 10 km or more
Scattered clouds at a height of 2000 ft
Temporary
from 29 at 18 UTC to 29 at 22 UTC
Wind 22 kt from the West with gusts up to 34 kt

TAF: EGPN 291702Z 2918/2922 26019KT 9999 SCT020 TEMPO 2918/2922 27022G34KT

Weather observations and forecasts of more than 4000 airports (METAR and TAF reports).

The available stations are represented by yellow and red dots on the map.

Hover mouse over dot to see the name of the station.

Then click to see weather observations and forecasts.

To change the map : click on the green buttons with a black cross to zoom in, on the green button with a dash to zoom out, or on the green arrows for adjacent maps.


METAR-TAF: